Oak Hammock Air Park

CAV9 · Manitoba, Canada

METAR history CAV9 · Oak Hammock Air Park

Below you see METARs of the last few days. Select a year to browse through older METARs, from the year 2007 onwards.

November 26, 2022

Time Code Weather Temp. Visibility Ceiling Wind METAR/SPECI
15:41
V
2 °C 15 mi - 290° 290° 10 kt SPECI CYWG 262141Z 29010KT 15SM FEW250 02/M02 A2978 RMK CI1 CI TR SLP096
15:41
V
2 °C 15 mi - 290° 290° 10 kt METAR CYWG 262141Z 29010KT 15SM FEW250 02/M02 A2978 RMK CI1 CI TR SLP096
15:00
V
3 °C 15 mi - 290° 290° 9 kt METAR CYWG 262100Z 29009KT 15SM FEW250 03/M01 A2976 RMK CI1 SLP092
14:00
V
3 °C 15 mi - 290° 290° 9 kt METAR CYWG 262000Z 29009KT 15SM FEW250 03/M01 A2975 RMK CI1 SLP087
13:00
V
3 °C 15 mi - 290° 290° 11 kt METAR CYWG 261900Z 29011KT 15SM SCT250 03/M01 A2973 RMK CI4 SLP081
12:00
V
2 °C 15 mi 25,000 ft 300° 300° 12 kt METAR CYWG 261800Z 30012KT 15SM FEW095 BKN250 02/M00 A2973 RMK AC1CI5 AC TR SLP079
11:00
V
1 °C 15 mi - 300° 300° 10 kt METAR CYWG 261700Z 30010KT 15SM FEW095 FEW120 SCT230 01/M01 A2973 RMK AC1AC1CI4 AC TR AC TR SLP079
10:00
V
2 °C 15 mi 23,000 ft 310° 310° 12 kt METAR CYWG 261600Z 31012KT 15SM FEW095 FEW120 BKN230 02/M00 A2970 RMK AC1AC1CI3 SLP072
09:00
V
2 °C 15 mi 12,000 ft 310° 310° 11 kt METAR CYWG 261500Z 31011KT 15SM SCT095 BKN120 02/M00 A2967 RMK AC4AC2 SLP060
08:00
V
2 °C 15 mi 17,000 ft 300° 300° 9 kt METAR CYWG 261400Z 30009KT 15SM FEW085 FEW100 BKN170 BKN180 02/M00 A2963 RMK AC1AC1AC4AS1 SLP046
07:00
V
2 °C 15 mi 9,500 ft 300° 300° 10 kt METAR CYWG 261300Z 30010KT 15SM SCT085 BKN095 BKN140 BKN200 02/M00 A2960 RMK AC3AC2AC1CI1 SLP035
06:00
V
1 °C 15 mi 18,000 ft 310° 310° 13 kt METAR CYWG 261200Z 31013KT 15SM FEW100 FEW130 BKN180 BKN200 01/M00 A2958 RMK AC1AC2AC4CI1 AC TR SLP031
05:00
V
1 °C 15 mi 20,000 ft 300° 300° 9 kt METAR CYWG 261100Z 30009KT 15SM FEW100 SCT150 SCT180 BKN200 01/M00 A2956 RMK AC1AC3AC1CS3 AC TR SLP022
04:00
V
2 °C 15 mi 20,000 ft 300° 300° 12 kt METAR CYWG 261000Z 30012KT 15SM BKN200 BKN210 02/M00 A2955 RMK CC5CI2 SLP020
03:18
V
2 °C 15 mi 20,000 ft 280° 280° 7 kt METAR CYWG 260918Z 28007KT 15SM FEW160 OVC200 02/M00 A2956 RMK AC2CI6 / T DECREASE/ SLP022
03:00
V
3 °C 15 mi 20,000 ft 280° 280° 9 kt METAR CYWG 260900Z 28009KT 15SM SCT160 OVC200 03/M00 A2955 RMK AC4CI4 SLP017
02:00
V
3 °C 15 mi 18,000 ft 230° 230° 6 kt METAR CYWG 260800Z 23006KT 15SM SCT160 OVC180 03/M00 A2951 RMK AC4AC4 SLP005
01:00
V
3 °C 15 mi 17,000 ft 260° 260° 9 kt METAR CYWG 260700Z 26009KT 15SM SCT160 BKN170 OVC200 03/M00 A2953 RMK AC4AC1CI3 SLP010
00:00
V
4 °C 15 mi 20,000 ft 260° 260° 12 kt METAR CYWG 260600Z 26012KT 15SM FEW170 OVC200 04/M00 A2953 RMK AC2CI6 SLP013

November 25, 2022

Time Code Weather Temp. Visibility Ceiling Wind METAR/SPECI
23:00
V
3 °C 15 mi 17,000 ft 220° 220° 10 kt METAR CYWG 260500Z 22010KT 15SM BKN170 OVC200 03/M00 A2953 RMK AC5CI3 SLP015
22:00
V
0 °C 15 mi 19,000 ft 170° 170° 3 kt METAR CYWG 260400Z 17003KT 15SM SCT170 BKN190 OVC210 00/M01 A2956 RMK AC3AC2CI3 SLP024
21:00
V
1 °C 15 mi 22,000 ft 180° 180° 7 kt METAR CYWG 260300Z 18007KT 15SM FEW190 SCT200 BKN220 BKN230 01/M02 A2956 RMK AC2CI1CI2CI2 SLP025
20:47
V
2 °C 15 mi - 130° 130° 3 kt METAR CYWG 260247Z 13003KT 120V220 15SM FEW210 FEW220 SCT230 02/M02 A2955 RMK CI1CI1CI2 / T DECREASE/ SLP022
20:00
V
3 °C 15 mi - 220° 220° 10 kt METAR CYWG 260200Z 22010KT 15SM FEW250 03/M01 A2954 RMK CI2 SLP019
19:00
V
3 °C 15 mi - 200° 200° 12 kt METAR CYWG 260100Z 20012KT 15SM FEW250 03/M01 A2957 RMK CI2 SLP027
18:00
V
2 °C 15 mi - 190° 190° 12 kt METAR CYWG 260000Z 19012KT 15SM FEW180 SCT250 02/M01 A2960 RMK AC1CI4 AC TR SLP036
17:04
V
2 °C 15 mi 25,000 ft 190° 190° 14 kt METAR CYWG 252304Z 19014KT 15SM FEW180 BKN250 02/M01 A2960 RMK AC1CI5 AC TR SLP039
16:00
V
4 °C 15 mi 25,000 ft 210° 210° 15 kt METAR CYWG 252200Z 21015KT 15SM FEW180 FEW200 BKN250 04/M01 A2963 RMK AC1CC1CI6 AC TR PRESFR SLP046
15:00
V
4 °C 15 mi 25,000 ft 200° 200° 13 - 23 kt METAR CYWG 252100Z 20013G23KT 15SM FEW180 BKN250 04/M01 A2965 RMK AC1CI6 AC TR SLP054
14:00
V
3 °C 15 mi 24,000 ft 190° 190° 20 kt METAR CYWG 252000Z 19020KT 15SM FEW180 BKN240 03/M01 A2965 RMK AC1CI7 AC TR SLP056
13:00
V
2 °C 15 mi 25,000 ft 200° 200° 17 - 23 kt METAR CYWG 251900Z 20017G23KT 15SM BKN250 02/M02 A2970 RMK CI6 CC ASOCTD CONTRAILS SLP074
12:00
V
0 °C 15 mi 25,000 ft 190° 190° 15 - 21 kt METAR CYWG 251800Z 19015G21KT 15SM BKN250 00/M04 A2976 RMK CI6 CC ASOCTD SLP092
11:00
V
-2 °C 15 mi - 190° 190° 15 kt METAR CYWG 251700Z 19015KT 15SM SCT250 M02/M05 A2979 RMK CI3 SLP103
10:00
V
-3 °C 15 mi 25,000 ft 190° 190° 16 kt METAR CYWG 251600Z 19016KT 15SM BKN250 M03/M06 A2983 RMK CI7 CONTRAILS PRESFR SLP116
09:00
V
-5 °C 15 mi 25,000 ft 170° 170° 12 kt METAR CYWG 251500Z 17012KT 15SM BKN250 M05/M06 A2986 RMK CI6 CONTRAILS SLP129
08:00
V
-4 °C 15 mi 26,000 ft 190° 190° 10 kt METAR CYWG 251400Z 19010KT 15SM FEW140 FEW160 FEW200 BKN260 M04/M06 A2989 RMK AS1AC1CI1CS6 AS TR AC TR CI TR SLP139
07:00
V
-4 °C 15 mi - 190° 190° 11 kt METAR CYWG 251300Z 19011KT 15SM FEW170 FEW210 SCT260 M04/M06 A2992 RMK AC1CI1CI2 AC TR SLP147
06:00
V
-4 °C 15 mi - 200° 200° 10 kt METAR CYWG 251200Z 20010KT 15SM FEW210 SCT230 M04/M06 A2992 RMK CI1CI3 SLP149
05:00
V
-3 °C 15 mi 24,000 ft 210° 210° 12 kt METAR CYWG 251100Z 21012KT 15SM FEW220 BKN240 M03/M05 A2994 RMK CI2CI3 SLP155
04:00
V
-4 °C 15 mi 26,000 ft 210° 210° 10 kt METAR CYWG 251000Z 21010KT 15SM BKN260 M04/M06 A2995 RMK CI5 SLP158
03:00
V
-5 °C 15 mi 24,000 ft 190° 190° 8 kt METAR CYWG 250900Z 19008KT 15SM FEW220 FEW230 BKN240 M05/M06 A2999 RMK CS1CS1CS4 SLP170
02:00
V
-6 °C 15 mi 26,000 ft 180° 180° 7 kt METAR CYWG 250800Z 18007KT 15SM BKN260 M06/M08 A2999 RMK CI5 SLP173
01:00
V
-5 °C 15 mi - 200° 200° 6 kt METAR CYWG 250700Z 20006KT 15SM SCT260 M05/M06 A3002 RMK CI3 SLP184
00:00
V
-4 °C 15 mi - 220° 220° 7 kt METAR CYWG 250600Z 22007KT 15SM FEW230 FEW260 M04/M05 A3003 RMK CI1CI1 SLP184

November 24, 2022

Time Code Weather Temp. Visibility Ceiling Wind METAR/SPECI
23:00
V
-3 °C 15 mi - 230° 230° 6 kt METAR CYWG 250500Z 23006KT 15SM FEW140 SCT260 M03/M05 A3003 RMK AC1CI3 AC TR SLP184
22:00
V
-2 °C 15 mi - 240° 240° 7 kt METAR CYWG 250400Z 24007KT 15SM SKC M02/M05 A3004 RMK SLP188
21:00
V
-3 °C 15 mi - 240° 240° 7 kt METAR CYWG 250300Z 24007KT 15SM FEW095 FEW160 M03/M05 A3005 RMK AC1AS2 AC TR SLP193
20:00
V
-2 °C 15 mi - 250° 250° 7 kt METAR CYWG 250200Z 25007KT 15SM FEW100 SCT160 M02/M05 A3005 RMK AC1AC2 SLP193
19:00
V
-3 °C 15 mi - 270° 270° 7 kt METAR CYWG 250100Z 27007KT 15SM FEW110 SCT160 M03/M05 A3006 RMK AC1AC3 AC TR SLP197
18:00
V
-2 °C 15 mi - 250° 250° 7 kt METAR CYWG 250000Z 25007KT 15SM FEW110 SCT180 M02/M04 A3006 RMK AC1AC3 SLP197
17:00
V
0 °C 15 mi 25,000 ft 240° 240° 5 kt METAR CYWG 242300Z 24005KT 15SM SCT180 BKN250 M00/M04 A3006 RMK AC3CI2 SLP195
16:00
V
1 °C 15 mi 18,000 ft 260° 260° 5 kt METAR CYWG 242200Z 26005KT 15SM BKN180 BKN250 01/M03 A3006 RMK AC5CI2 SLP195
15:00
V
0 °C 15 mi 20,000 ft 260° 260° 6 kt METAR CYWG 242100Z 26006KT 15SM FEW180 BKN200 BKN250 00/M03 A3006 RMK AC2CC3CI2 SLP196
14:00
V
1 °C 15 mi 25,000 ft 260° 260° 9 kt METAR CYWG 242000Z 26009KT 15SM FEW170 SCT200 BKN250 01/M04 A3008 RMK AC1CC3CI4 AC TR SLP202
13:00
V
0 °C 15 mi - 250° 250° 11 kt METAR CYWG 241900Z 25011KT 15SM SCT250 M00/M04 A3009 RMK CI4 CONTRAILS SLP204
12:00
V
0 °C 15 mi 25,000 ft 260° 260° 10 kt METAR CYWG 241800Z 26010KT 15SM BKN250 M00/M04 A3008 RMK CI5 CONTRAILS SLP203
11:00
V
-1 °C 15 mi - 270° 270° 10 kt METAR CYWG 241700Z 27010KT 15SM FEW250 M01/M05 A3010 RMK CI1 SLP207
10:00
V
-3 °C 15 mi - 260° 260° 10 kt METAR CYWG 241600Z 26010KT 15SM FEW250 M03/M06 A3008 RMK CI1 CI TR SLP204
09:00
V
-7 °C 15 mi - 280° 280° 7 kt METAR CYWG 241500Z 28007KT 15SM FEW120 M07/M08 A3007 RMK AC1 AC TR SLP200
08:00
V
-7 °C 15 mi - 270° 270° 9 kt METAR CYWG 241400Z 27009KT 15SM FEW120 M07/M08 A3007 RMK AC1 AC TR SLP201
07:00
V
-6 °C 15 mi - 280° 280° 8 kt METAR CYWG 241300Z 28008KT 15SM FEW140 M06/M07 A3005 RMK AC1 AC TR SLP195
06:00
V
-5 °C 15 mi - 290° 290° 8 kt METAR CYWG 241200Z 29008KT 15SM FEW260 M05/M06 A3004 RMK CI2 SLP190
05:00
V
-3 °C 15 mi - 300° 300° 8 kt METAR CYWG 241100Z 30008KT 15SM FEW120 SCT140 SCT160 M03/M04 A3003 RMK AC1AC2AS1 SLP185
04:00
V
-1 °C 15 mi 12,000 ft 280° 280° 10 kt METAR CYWG 241000Z 28010KT 15SM BKN120 M01/M03 A3002 RMK AC7 SLP181

We and third parties follow your internet behavior on our website with cookies. If you continue, we assume you agree with our cookie policy.